Terminal Aerodrome Forecast
Issued by NWS New Orleans/Baton Rouge, LA

Home | Current Version | Previous Version | Text Only | Print | Product List | Glossary On
Versions: 1 2 3 4 5 6 7 8 9 10 11 12
000
FTUS44 KLIX 220543
TAFNEW
TAF
KNEW 220543Z 2206/2306 12008KT P6SM BKN024
     FM221000 17008KT 2SM BR OVC015
     FM221300 18009KT P6SM OVC035
      TEMPO 2215/2218 5SM SHRA BR OVC060
     FM221800 23011KT P6SM BKN045
     FM222100 27010KT P6SM SCT080=

USA.gov is the U.S. government's official web portal to all federal, state and local government web resources and services.